sensor_id;sensor_type;location;lat;lon;timestamp;P1;durP1;ratioP1;P2;durP2;ratioP2
62990;SDS011;49084;48.204;16.202;2022-09-03T00:05:20;5.45;;;2.40;;
62990;SDS011;49084;48.204;16.202;2022-09-03T00:13:22;3.38;;;2.58;;
62990;SDS011;49084;48.204;16.202;2022-09-03T00:15:52;3.95;;;2.25;;
62990;SDS011;49084;48.204;16.202;2022-09-03T00:18:20;2.65;;;2.28;;
62990;SDS011;49084;48.204;16.202;2022-09-03T00:20:56;3.20;;;2.88;;
62990;SDS011;49084;48.204;16.202;2022-09-03T00:23:34;4.50;;;2.60;;
62990;SDS011;49084;48.204;16.202;2022-09-03T00:28:39;6.47;;;2.53;;
62990;SDS011;49084;48.204;16.202;2022-09-03T00:31:15;3.90;;;2.85;;
62990;SDS011;49084;48.204;16.202;2022-09-03T00:33:48;5.43;;;3.53;;
62990;SDS011;49084;48.204;16.202;2022-09-03T00:36:18;5.60;;;2.63;;
62990;SDS011;49084;48.204;16.202;2022-09-03T00:38:48;6.38;;;3.25;;
62990;SDS011;49084;48.204;16.202;2022-09-03T00:46:58;6.13;;;2.83;;
62990;SDS011;49084;48.204;16.202;2022-09-03T00:49:38;4.82;;;3.15;;
62990;SDS011;49084;48.204;16.202;2022-09-03T00:52:19;4.63;;;2.92;;
62990;SDS011;49084;48.204;16.202;2022-09-03T00:57:37;3.42;;;2.53;;
62990;SDS011;49084;48.204;16.202;2022-09-03T01:00:08;5.30;;;3.20;;
62990;SDS011;49084;48.204;16.202;2022-09-03T01:07:57;4.05;;;2.78;;
62990;SDS011;49084;48.204;16.202;2022-09-03T01:21:42;4.35;;;2.72;;
62990;SDS011;49084;48.204;16.202;2022-09-03T01:27:20;4.38;;;3.20;;
62990;SDS011;49084;48.204;16.202;2022-09-03T01:35:16;4.90;;;2.85;;
62990;SDS011;49084;48.204;16.202;2022-09-03T01:38:15;6.63;;;3.03;;
62990;SDS011;49084;48.204;16.202;2022-09-03T01:40:58;4.63;;;2.67;;
62990;SDS011;49084;48.204;16.202;2022-09-03T01:46:44;2.95;;;2.05;;
62990;SDS011;49084;48.204;16.202;2022-09-03T01:49:24;5.28;;;2.50;;
62990;SDS011;49084;48.204;16.202;2022-09-03T01:52:20;4.45;;;2.80;;
62990;SDS011;49084;48.204;16.202;2022-09-03T01:57:41;4.53;;;2.30;;
62990;SDS011;49084;48.204;16.202;2022-09-03T02:00:19;3.75;;;2.08;;
62990;SDS011;49084;48.204;16.202;2022-09-03T02:02:45;4.60;;;2.53;;
62990;SDS011;49084;48.204;16.202;2022-09-03T02:05:14;3.25;;;2.10;;
62990;SDS011;49084;48.204;16.202;2022-09-03T02:07:48;2.58;;;2.38;;
62990;SDS011;49084;48.204;16.202;2022-09-03T02:13:42;6.07;;;2.20;;
62990;SDS011;49084;48.204;16.202;2022-09-03T02:16:16;3.67;;;1.63;;
62990;SDS011;49084;48.204;16.202;2022-09-03T02:18:53;3.80;;;1.60;;
62990;SDS011;49084;48.204;16.202;2022-09-03T02:21:23;5.82;;;2.58;;
62990;SDS011;49084;48.204;16.202;2022-09-03T02:23:51;2.67;;;1.98;;
62990;SDS011;49084;48.204;16.202;2022-09-03T02:26:20;6.50;;;2.03;;
62990;SDS011;49084;48.204;16.202;2022-09-03T02:28:48;4.65;;;2.03;;
62990;SDS011;49084;48.204;16.202;2022-09-03T02:31:16;1.75;;;1.65;;
62990;SDS011;49084;48.204;16.202;2022-09-03T02:33:43;3.53;;;2.10;;
62990;SDS011;49084;48.204;16.202;2022-09-03T02:36:11;3.10;;;1.98;;
62990;SDS011;49084;48.204;16.202;2022-09-03T02:38:42;6.38;;;2.83;;
62990;SDS011;49084;48.204;16.202;2022-09-03T02:41:09;5.00;;;2.00;;
62990;SDS011;49084;48.204;16.202;2022-09-03T02:49:09;2.90;;;1.88;;
62990;SDS011;49084;48.204;16.202;2022-09-03T02:51:36;2.80;;;2.30;;
62990;SDS011;49084;48.204;16.202;2022-09-03T02:54:03;3.03;;;2.13;;
62990;SDS011;49084;48.204;16.202;2022-09-03T02:56:30;1.98;;;1.83;;
62990;SDS011;49084;48.204;16.202;2022-09-03T02:58:56;3.53;;;2.20;;
62990;SDS011;49084;48.204;16.202;2022-09-03T03:01:22;2.33;;;2.13;;
62990;SDS011;49084;48.204;16.202;2022-09-03T03:03:47;2.35;;;2.10;;
62990;SDS011;49084;48.204;16.202;2022-09-03T03:06:14;4.45;;;2.15;;
62990;SDS011;49084;48.204;16.202;2022-09-03T03:08:40;4.80;;;2.50;;
62990;SDS011;49084;48.204;16.202;2022-09-03T03:11:08;6.80;;;2.30;;
62990;SDS011;49084;48.204;16.202;2022-09-03T03:13:33;3.17;;;2.30;;
62990;SDS011;49084;48.204;16.202;2022-09-03T03:16:00;4.15;;;2.15;;
62990;SDS011;49084;48.204;16.202;2022-09-03T03:18:27;5.38;;;2.40;;
62990;SDS011;49084;48.204;16.202;2022-09-03T03:20:53;5.63;;;2.40;;
62990;SDS011;49084;48.204;16.202;2022-09-03T03:23:19;3.75;;;2.50;;
62990;SDS011;49084;48.204;16.202;2022-09-03T03:25:45;2.72;;;2.13;;
62990;SDS011;49084;48.204;16.202;2022-09-03T03:28:11;8.55;;;2.63;;
62990;SDS011;49084;48.204;16.202;2022-09-03T03:30:38;5.70;;;2.50;;
62990;SDS011;49084;48.204;16.202;2022-09-03T03:33:04;2.85;;;2.47;;
62990;SDS011;49084;48.204;16.202;2022-09-03T03:35:31;3.50;;;2.03;;
62990;SDS011;49084;48.204;16.202;2022-09-03T03:37:57;6.05;;;2.42;;
62990;SDS011;49084;48.204;16.202;2022-09-03T03:40:23;3.60;;;2.45;;
62990;SDS011;49084;48.204;16.202;2022-09-03T03:42:49;4.88;;;2.58;;
62990;SDS011;49084;48.204;16.202;2022-09-03T03:45:14;4.65;;;2.65;;
62990;SDS011;49084;48.204;16.202;2022-09-03T03:47:40;3.38;;;2.35;;
62990;SDS011;49084;48.204;16.202;2022-09-03T03:50:06;3.70;;;2.55;;
62990;SDS011;49084;48.204;16.202;2022-09-03T03:52:32;4.22;;;2.55;;
62990;SDS011;49084;48.204;16.202;2022-09-03T03:54:57;6.70;;;2.80;;
62990;SDS011;49084;48.204;16.202;2022-09-03T03:57:23;6.10;;;2.90;;
62990;SDS011;49084;48.204;16.202;2022-09-03T03:59:49;5.03;;;2.85;;
62990;SDS011;49084;48.204;16.202;2022-09-03T04:02:16;7.38;;;2.80;;
62990;SDS011;49084;48.204;16.202;2022-09-03T04:04:42;3.22;;;2.42;;
62990;SDS011;49084;48.204;16.202;2022-09-03T04:07:08;5.35;;;2.55;;
62990;SDS011;49084;48.204;16.202;2022-09-03T04:09:34;5.75;;;3.10;;
62990;SDS011;49084;48.204;16.202;2022-09-03T04:11:59;8.70;;;2.83;;
62990;SDS011;49084;48.204;16.202;2022-09-03T04:14:26;5.95;;;2.58;;
62990;SDS011;49084;48.204;16.202;2022-09-03T04:16:54;5.32;;;2.63;;
62990;SDS011;49084;48.204;16.202;2022-09-03T04:19:20;5.05;;;2.78;;
62990;SDS011;49084;48.204;16.202;2022-09-03T04:21:46;4.60;;;2.22;;
62990;SDS011;49084;48.204;16.202;2022-09-03T04:24:12;9.32;;;3.72;;
62990;SDS011;49084;48.204;16.202;2022-09-03T04:26:37;6.45;;;2.40;;
62990;SDS011;49084;48.204;16.202;2022-09-03T04:29:05;5.95;;;2.60;;
62990;SDS011;49084;48.204;16.202;2022-09-03T04:31:33;6.35;;;2.72;;
62990;SDS011;49084;48.204;16.202;2022-09-03T04:34:00;2.85;;;2.60;;
62990;SDS011;49084;48.204;16.202;2022-09-03T04:36:27;3.53;;;2.50;;
62990;SDS011;49084;48.204;16.202;2022-09-03T04:38:55;4.20;;;2.15;;
62990;SDS011;49084;48.204;16.202;2022-09-03T04:41:24;3.30;;;2.75;;
62990;SDS011;49084;48.204;16.202;2022-09-03T04:43:52;4.72;;;2.83;;
62990;SDS011;49084;48.204;16.202;2022-09-03T04:46:19;3.50;;;2.50;;
62990;SDS011;49084;48.204;16.202;2022-09-03T04:48:49;4.72;;;2.88;;
62990;SDS011;49084;48.204;16.202;2022-09-03T04:51:21;4.07;;;2.92;;
62990;SDS011;49084;48.204;16.202;2022-09-03T04:53:53;9.05;;;2.90;;
62990;SDS011;49084;48.204;16.202;2022-09-03T04:56:21;4.65;;;2.60;;
62990;SDS011;49084;48.204;16.202;2022-09-03T04:58:53;6.55;;;2.47;;
62990;SDS011;49084;48.204;16.202;2022-09-03T05:01:21;4.53;;;2.42;;
62990;SDS011;49084;48.204;16.202;2022-09-03T05:03:48;6.20;;;2.60;;
62990;SDS011;49084;48.204;16.202;2022-09-03T05:06:18;4.95;;;2.80;;
62990;SDS011;49084;48.204;16.202;2022-09-03T05:08:47;4.88;;;3.15;;
62990;SDS011;49084;48.204;16.202;2022-09-03T05:11:14;4.50;;;2.70;;
62990;SDS011;49084;48.204;16.202;2022-09-03T05:13:40;3.97;;;2.35;;
62990;SDS011;49084;48.204;16.202;2022-09-03T05:16:07;5.35;;;2.90;;
62990;SDS011;49084;48.204;16.202;2022-09-03T05:18:34;3.15;;;2.33;;
62990;SDS011;49084;48.204;16.202;2022-09-03T05:21:05;2.75;;;2.08;;
62990;SDS011;49084;48.204;16.202;2022-09-03T05:23:34;2.75;;;2.22;;
62990;SDS011;49084;48.204;16.202;2022-09-03T05:26:02;2.70;;;2.50;;
62990;SDS011;49084;48.204;16.202;2022-09-03T05:28:33;2.83;;;2.35;;
62990;SDS011;49084;48.204;16.202;2022-09-03T05:31:04;3.70;;;2.10;;
62990;SDS011;49084;48.204;16.202;2022-09-03T05:33:39;4.20;;;2.55;;
62990;SDS011;49084;48.204;16.202;2022-09-03T05:36:18;3.97;;;2.10;;
62990;SDS011;49084;48.204;16.202;2022-09-03T05:38:46;4.32;;;2.22;;
62990;SDS011;49084;48.204;16.202;2022-09-03T05:41:12;2.25;;;2.05;;
62990;SDS011;49084;48.204;16.202;2022-09-03T05:43:39;5.38;;;2.38;;
62990;SDS011;49084;48.204;16.202;2022-09-03T05:46:09;2.50;;;2.03;;
62990;SDS011;49084;48.204;16.202;2022-09-03T05:48:37;2.67;;;1.83;;
62990;SDS011;49084;48.204;16.202;2022-09-03T05:51:04;4.65;;;2.22;;
62990;SDS011;49084;48.204;16.202;2022-09-03T05:53:33;2.58;;;1.85;;
62990;SDS011;49084;48.204;16.202;2022-09-03T05:56:01;3.80;;;1.83;;
62990;SDS011;49084;48.204;16.202;2022-09-03T05:58:32;3.97;;;1.70;;
62990;SDS011;49084;48.204;16.202;2022-09-03T06:00:59;5.85;;;2.10;;
62990;SDS011;49084;48.204;16.202;2022-09-03T06:03:25;4.63;;;1.60;;
62990;SDS011;49084;48.204;16.202;2022-09-03T06:05:51;4.28;;;1.90;;
62990;SDS011;49084;48.204;16.202;2022-09-03T06:08:19;2.10;;;1.40;;
62990;SDS011;49084;48.204;16.202;2022-09-03T06:10:46;4.05;;;2.13;;
62990;SDS011;49084;48.204;16.202;2022-09-03T06:13:12;2.50;;;1.67;;
62990;SDS011;49084;48.204;16.202;2022-09-03T06:15:38;3.13;;;1.88;;
62990;SDS011;49084;48.204;16.202;2022-09-03T06:18:04;4.00;;;1.67;;
62990;SDS011;49084;48.204;16.202;2022-09-03T06:20:30;2.95;;;1.50;;
62990;SDS011;49084;48.204;16.202;2022-09-03T06:22:57;4.40;;;1.58;;
62990;SDS011;49084;48.204;16.202;2022-09-03T06:25:23;6.72;;;1.55;;
62990;SDS011;49084;48.204;16.202;2022-09-03T06:27:49;5.53;;;2.20;;
62990;SDS011;49084;48.204;16.202;2022-09-03T06:30:14;2.35;;;1.83;;
62990;SDS011;49084;48.204;16.202;2022-09-03T06:32:44;3.15;;;2.25;;
62990;SDS011;49084;48.204;16.202;2022-09-03T06:35:10;3.83;;;2.15;;
62990;SDS011;49084;48.204;16.202;2022-09-03T06:37:39;5.78;;;1.88;;
62990;SDS011;49084;48.204;16.202;2022-09-03T06:40:05;4.45;;;2.33;;
62990;SDS011;49084;48.204;16.202;2022-09-03T06:42:36;6.13;;;1.90;;
62990;SDS011;49084;48.204;16.202;2022-09-03T06:45:02;4.22;;;2.15;;
62990;SDS011;49084;48.204;16.202;2022-09-03T06:47:30;3.92;;;1.80;;
62990;SDS011;49084;48.204;16.202;2022-09-03T06:49:56;5.15;;;1.90;;
62990;SDS011;49084;48.204;16.202;2022-09-03T06:52:24;3.45;;;1.80;;
62990;SDS011;49084;48.204;16.202;2022-09-03T06:54:50;5.30;;;1.40;;
62990;SDS011;49084;48.204;16.202;2022-09-03T06:57:15;2.45;;;2.22;;
62990;SDS011;49084;48.204;16.202;2022-09-03T06:59:41;5.88;;;2.15;;
62990;SDS011;49084;48.204;16.202;2022-09-03T07:02:07;3.60;;;1.63;;
62990;SDS011;49084;48.204;16.202;2022-09-03T07:04:34;2.75;;;1.60;;
62990;SDS011;49084;48.204;16.202;2022-09-03T07:07:00;6.88;;;1.88;;
62990;SDS011;49084;48.204;16.202;2022-09-03T07:09:26;4.93;;;2.58;;
62990;SDS011;49084;48.204;16.202;2022-09-03T07:11:51;3.28;;;1.85;;
62990;SDS011;49084;48.204;16.202;2022-09-03T07:14:18;3.15;;;1.65;;
62990;SDS011;49084;48.204;16.202;2022-09-03T07:16:44;9.02;;;1.95;;
62990;SDS011;49084;48.204;16.202;2022-09-03T07:19:11;7.72;;;2.17;;
62990;SDS011;49084;48.204;16.202;2022-09-03T07:21:37;6.57;;;1.83;;
62990;SDS011;49084;48.204;16.202;2022-09-03T07:24:06;5.72;;;1.70;;
62990;SDS011;49084;48.204;16.202;2022-09-03T07:26:37;6.10;;;1.98;;
62990;SDS011;49084;48.204;16.202;2022-09-03T07:29:08;4.53;;;2.70;;
62990;SDS011;49084;48.204;16.202;2022-09-03T07:31:39;4.53;;;1.77;;
62990;SDS011;49084;48.204;16.202;2022-09-03T07:34:07;2.75;;;1.48;;
62990;SDS011;49084;48.204;16.202;2022-09-03T07:36:37;2.10;;;1.70;;
62990;SDS011;49084;48.204;16.202;2022-09-03T07:39:05;5.43;;;1.67;;
62990;SDS011;49084;48.204;16.202;2022-09-03T07:41:31;2.72;;;1.58;;
62990;SDS011;49084;48.204;16.202;2022-09-03T07:43:57;5.43;;;1.80;;
62990;SDS011;49084;48.204;16.202;2022-09-03T07:46:30;2.45;;;1.40;;
62990;SDS011;49084;48.204;16.202;2022-09-03T07:48:58;1.95;;;1.45;;
62990;SDS011;49084;48.204;16.202;2022-09-03T07:51:28;1.50;;;1.40;;
62990;SDS011;49084;48.204;16.202;2022-09-03T07:53:56;2.60;;;1.65;;
62990;SDS011;49084;48.204;16.202;2022-09-03T07:56:24;3.00;;;1.75;;
62990;SDS011;49084;48.204;16.202;2022-09-03T07:58:51;2.22;;;1.75;;
62990;SDS011;49084;48.204;16.202;2022-09-03T08:01:18;4.38;;;1.80;;
62990;SDS011;49084;48.204;16.202;2022-09-03T08:03:46;4.78;;;1.95;;
62990;SDS011;49084;48.204;16.202;2022-09-03T08:06:14;5.10;;;1.60;;
62990;SDS011;49084;48.204;16.202;2022-09-03T08:08:41;4.25;;;1.70;;
62990;SDS011;49084;48.204;16.202;2022-09-03T08:11:12;5.40;;;1.67;;
62990;SDS011;49084;48.204;16.202;2022-09-03T08:13:40;4.05;;;1.63;;
62990;SDS011;49084;48.204;16.202;2022-09-03T08:16:08;4.53;;;1.73;;
62990;SDS011;49084;48.204;16.202;2022-09-03T08:18:35;2.70;;;1.52;;
62990;SDS011;49084;48.204;16.202;2022-09-03T08:21:03;7.00;;;1.75;;
62990;SDS011;49084;48.204;16.202;2022-09-03T08:23:37;4.22;;;1.23;;
62990;SDS011;49084;48.204;16.202;2022-09-03T08:26:04;2.80;;;1.25;;
62990;SDS011;49084;48.204;16.202;2022-09-03T08:28:31;3.70;;;1.10;;
62990;SDS011;49084;48.204;16.202;2022-09-03T08:30:58;2.35;;;1.17;;
62990;SDS011;49084;48.204;16.202;2022-09-03T08:33:38;3.22;;;1.38;;
62990;SDS011;49084;48.204;16.202;2022-09-03T08:36:08;5.25;;;1.30;;
62990;SDS011;49084;48.204;16.202;2022-09-03T08:38:36;1.60;;;1.50;;
62990;SDS011;49084;48.204;16.202;2022-09-03T08:41:13;3.70;;;1.50;;
62990;SDS011;49084;48.204;16.202;2022-09-03T08:47:17;2.75;;;1.60;;
62990;SDS011;49084;48.204;16.202;2022-09-03T08:49:46;1.98;;;1.30;;
62990;SDS011;49084;48.204;16.202;2022-09-03T08:57:48;4.55;;;1.98;;
62990;SDS011;49084;48.204;16.202;2022-09-03T09:00:16;5.00;;;2.13;;
62990;SDS011;49084;48.204;16.202;2022-09-03T09:02:47;6.75;;;2.10;;
62990;SDS011;49084;48.204;16.202;2022-09-03T09:05:47;4.70;;;2.10;;
62990;SDS011;49084;48.204;16.202;2022-09-03T09:10:48;3.80;;;1.60;;
62990;SDS011;49084;48.204;16.202;2022-09-03T09:13:27;4.60;;;1.63;;
62990;SDS011;49084;48.204;16.202;2022-09-03T09:21:31;5.07;;;1.85;;
62990;SDS011;49084;48.204;16.202;2022-09-03T09:24:04;3.88;;;1.73;;
62990;SDS011;49084;48.204;16.202;2022-09-03T09:26:35;3.88;;;1.67;;
62990;SDS011;49084;48.204;16.202;2022-09-03T09:29:04;4.07;;;1.25;;
62990;SDS011;49084;48.204;16.202;2022-09-03T09:31:34;1.45;;;1.35;;
62990;SDS011;49084;48.204;16.202;2022-09-03T09:34:05;4.57;;;1.52;;
62990;SDS011;49084;48.204;16.202;2022-09-03T09:36:54;2.97;;;1.60;;
62990;SDS011;49084;48.204;16.202;2022-09-03T09:39:19;3.80;;;1.63;;
62990;SDS011;49084;48.204;16.202;2022-09-03T09:41:59;3.85;;;1.30;;
62990;SDS011;49084;48.204;16.202;2022-09-03T09:44:39;3.00;;;1.40;;
62990;SDS011;49084;48.204;16.202;2022-09-03T09:47:15;3.35;;;1.55;;
62990;SDS011;49084;48.204;16.202;2022-09-03T09:49:59;1.67;;;1.40;;
62990;SDS011;49084;48.204;16.202;2022-09-03T09:52:27;3.15;;;1.50;;
62990;SDS011;49084;48.204;16.202;2022-09-03T09:55:07;2.50;;;1.38;;
62990;SDS011;49084;48.204;16.202;2022-09-03T09:57:34;2.17;;;1.05;;
62990;SDS011;49084;48.204;16.202;2022-09-03T10:00:06;4.93;;;1.48;;
62990;SDS011;49084;48.204;16.202;2022-09-03T10:02:36;1.35;;;1.17;;
62990;SDS011;49084;48.204;16.202;2022-09-03T10:07:58;5.82;;;1.30;;
62990;SDS011;49084;48.204;16.202;2022-09-03T10:10:25;1.45;;;1.30;;
62990;SDS011;49084;48.204;16.202;2022-09-03T10:15:29;2.65;;;1.20;;
62990;SDS011;49084;48.204;16.202;2022-09-03T10:18:14;4.05;;;1.40;;
62990;SDS011;49084;48.204;16.202;2022-09-03T10:20:49;4.22;;;1.42;;
62990;SDS011;49084;48.204;16.202;2022-09-03T10:23:23;4.28;;;1.20;;
62990;SDS011;49084;48.204;16.202;2022-09-03T10:28:21;1.67;;;1.45;;
62990;SDS011;49084;48.204;16.202;2022-09-03T10:33:26;4.38;;;1.33;;
62990;SDS011;49084;48.204;16.202;2022-09-03T10:41:31;3.30;;;1.27;;
62990;SDS011;49084;48.204;16.202;2022-09-03T10:52:09;3.55;;;1.20;;
62990;SDS011;49084;48.204;16.202;2022-09-03T10:54:57;3.53;;;1.73;;
62990;SDS011;49084;48.204;16.202;2022-09-03T10:57:53;4.03;;;1.25;;
62990;SDS011;49084;48.204;16.202;2022-09-03T11:00:52;3.45;;;1.40;;
62990;SDS011;49084;48.204;16.202;2022-09-03T11:09:00;1.48;;;1.02;;
62990;SDS011;49084;48.204;16.202;2022-09-03T11:11:40;4.00;;;1.20;;
62990;SDS011;49084;48.204;16.202;2022-09-03T11:14:10;1.63;;;0.80;;
62990;SDS011;49084;48.204;16.202;2022-09-03T11:16:44;2.83;;;0.90;;
62990;SDS011;49084;48.204;16.202;2022-09-03T11:19:19;1.75;;;0.90;;
62990;SDS011;49084;48.204;16.202;2022-09-03T11:22:10;4.10;;;0.98;;
62990;SDS011;49084;48.204;16.202;2022-09-03T11:24:37;2.28;;;1.17;;
62990;SDS011;49084;48.204;16.202;2022-09-03T11:27:29;7.37;;;2.40;;
62990;SDS011;49084;48.204;16.202;2022-09-03T11:30:02;2.30;;;1.20;;
62990;SDS011;49084;48.204;16.202;2022-09-03T11:37:59;1.33;;;0.98;;
62990;SDS011;49084;48.204;16.202;2022-09-03T11:40:34;0.90;;;0.90;;
62990;SDS011;49084;48.204;16.202;2022-09-03T11:46:00;3.30;;;0.93;;
62990;SDS011;49084;48.204;16.202;2022-09-03T11:48:32;3.80;;;1.17;;
62990;SDS011;49084;48.204;16.202;2022-09-03T11:51:30;1.27;;;1.17;;
62990;SDS011;49084;48.204;16.202;2022-09-03T11:56:44;1.63;;;1.05;;
62990;SDS011;49084;48.204;16.202;2022-09-03T12:02:01;2.42;;;1.00;;
62990;SDS011;49084;48.204;16.202;2022-09-03T12:05:20;8.23;;;1.20;;
62990;SDS011;49084;48.204;16.202;2022-09-03T12:10:45;2.97;;;1.13;;
62990;SDS011;49084;48.204;16.202;2022-09-03T12:18:43;4.00;;;1.48;;
62990;SDS011;49084;48.204;16.202;2022-09-03T12:21:11;1.77;;;1.15;;
62990;SDS011;49084;48.204;16.202;2022-09-03T12:26:16;2.00;;;1.10;;
62990;SDS011;49084;48.204;16.202;2022-09-03T12:28:51;2.55;;;1.15;;
62990;SDS011;49084;48.204;16.202;2022-09-03T12:31:29;1.00;;;1.00;;
62990;SDS011;49084;48.204;16.202;2022-09-03T12:36:24;1.67;;;1.10;;
62990;SDS011;49084;48.204;16.202;2022-09-03T12:38:51;6.95;;;1.30;;
62990;SDS011;49084;48.204;16.202;2022-09-03T12:41:21;1.30;;;1.00;;
62990;SDS011;49084;48.204;16.202;2022-09-03T12:43:56;2.45;;;0.90;;
62990;SDS011;49084;48.204;16.202;2022-09-03T12:46:27;1.33;;;1.20;;
62990;SDS011;49084;48.204;16.202;2022-09-03T12:48:58;3.58;;;0.85;;
62990;SDS011;49084;48.204;16.202;2022-09-03T12:51:33;5.20;;;1.08;;
62990;SDS011;49084;48.204;16.202;2022-09-03T12:54:00;0.95;;;0.95;;
62990;SDS011;49084;48.204;16.202;2022-09-03T12:56:31;0.98;;;0.90;;
62990;SDS011;49084;48.204;16.202;2022-09-03T12:59:06;7.77;;;1.07;;
62990;SDS011;49084;48.204;16.202;2022-09-03T13:01:43;3.65;;;0.90;;
62990;SDS011;49084;48.204;16.202;2022-09-03T13:04:19;3.20;;;0.93;;
62990;SDS011;49084;48.204;16.202;2022-09-03T13:06:52;4.53;;;0.95;;
62990;SDS011;49084;48.204;16.202;2022-09-03T13:09:36;1.10;;;1.00;;
62990;SDS011;49084;48.204;16.202;2022-09-03T13:12:04;1.88;;;0.95;;
62990;SDS011;49084;48.204;16.202;2022-09-03T13:14:42;1.25;;;1.15;;
62990;SDS011;49084;48.204;16.202;2022-09-03T13:17:14;1.73;;;1.15;;
62990;SDS011;49084;48.204;16.202;2022-09-03T13:25:47;2.53;;;1.15;;
62990;SDS011;49084;48.204;16.202;2022-09-03T13:28:53;4.47;;;1.00;;
62990;SDS011;49084;48.204;16.202;2022-09-03T13:31:27;6.32;;;0.80;;
62990;SDS011;49084;48.204;16.202;2022-09-03T13:34:42;5.30;;;1.33;;
62990;SDS011;49084;48.204;16.202;2022-09-03T13:39:55;0.88;;;0.88;;
62990;SDS011;49084;48.204;16.202;2022-09-03T13:47:48;2.05;;;0.88;;
62990;SDS011;49084;48.204;16.202;2022-09-03T13:50:44;2.05;;;0.85;;
62990;SDS011;49084;48.204;16.202;2022-09-03T13:53:17;0.93;;;0.90;;
62990;SDS011;49084;48.204;16.202;2022-09-03T13:56:49;3.80;;;0.93;;
62990;SDS011;49084;48.204;16.202;2022-09-03T13:59:00;3.33;;;1.30;;
62990;SDS011;49084;48.204;16.202;2022-09-03T14:04:11;2.08;;;0.82;;
62990;SDS011;49084;48.204;16.202;2022-09-03T14:06:53;1.10;;;0.98;;
62990;SDS011;49084;48.204;16.202;2022-09-03T14:09:47;1.02;;;0.93;;
62990;SDS011;49084;48.204;16.202;2022-09-03T14:12:18;0.95;;;0.80;;
62990;SDS011;49084;48.204;16.202;2022-09-03T14:14:57;3.42;;;0.95;;
62990;SDS011;49084;48.204;16.202;2022-09-03T14:20:30;4.35;;;1.10;;
62990;SDS011;49084;48.204;16.202;2022-09-03T14:25:59;1.10;;;0.82;;
62990;SDS011;49084;48.204;16.202;2022-09-03T14:34:02;0.93;;;0.85;;
62990;SDS011;49084;48.204;16.202;2022-09-03T14:36:35;2.43;;;1.00;;
62990;SDS011;49084;48.204;16.202;2022-09-03T14:48:03;2.85;;;0.93;;
62990;SDS011;49084;48.204;16.202;2022-09-03T14:56:05;4.00;;;1.30;;
62990;SDS011;49084;48.204;16.202;2022-09-03T15:01:33;1.27;;;1.00;;
62990;SDS011;49084;48.204;16.202;2022-09-03T15:09:44;1.45;;;1.02;;
62990;SDS011;49084;48.204;16.202;2022-09-03T15:14:56;1.08;;;0.95;;
62990;SDS011;49084;48.204;16.202;2022-09-03T15:29:08;1.85;;;0.85;;
62990;SDS011;49084;48.204;16.202;2022-09-03T15:34:46;2.00;;;1.20;;
62990;SDS011;49084;48.204;16.202;2022-09-03T15:43:02;3.38;;;1.02;;
62990;SDS011;49084;48.204;16.202;2022-09-03T15:51:27;1.38;;;0.75;;
62990;SDS011;49084;48.204;16.202;2022-09-03T15:54:01;4.03;;;1.15;;
62990;SDS011;49084;48.204;16.202;2022-09-03T15:56:52;2.90;;;0.90;;
62990;SDS011;49084;48.204;16.202;2022-09-03T15:59:31;6.55;;;1.00;;
62990;SDS011;49084;48.204;16.202;2022-09-03T16:02:15;1.23;;;0.80;;
62990;SDS011;49084;48.204;16.202;2022-09-03T16:15:13;1.13;;;1.02;;
62990;SDS011;49084;48.204;16.202;2022-09-03T16:23:11;1.97;;;0.87;;
62990;SDS011;49084;48.204;16.202;2022-09-03T16:25:52;1.13;;;1.05;;
62990;SDS011;49084;48.204;16.202;2022-09-03T16:28:29;1.83;;;1.35;;
62990;SDS011;49084;48.204;16.202;2022-09-03T16:33:57;1.20;;;1.10;;
62990;SDS011;49084;48.204;16.202;2022-09-03T16:39:15;1.05;;;0.98;;
62990;SDS011;49084;48.204;16.202;2022-09-03T16:47:43;3.22;;;0.95;;
62990;SDS011;49084;48.204;16.202;2022-09-03T16:50:33;1.75;;;1.00;;
62990;SDS011;49084;48.204;16.202;2022-09-03T16:53:07;1.35;;;1.20;;
62990;SDS011;49084;48.204;16.202;2022-09-03T16:58:29;2.13;;;0.90;;
62990;SDS011;49084;48.204;16.202;2022-09-03T17:01:21;2.78;;;1.05;;
62990;SDS011;49084;48.204;16.202;2022-09-03T17:07:05;5.57;;;1.45;;
62990;SDS011;49084;48.204;16.202;2022-09-03T17:12:16;3.53;;;1.27;;
62990;SDS011;49084;48.204;16.202;2022-09-03T17:17:54;6.60;;;1.73;;
62990;SDS011;49084;48.204;16.202;2022-09-03T17:23:53;3.50;;;1.55;;
62990;SDS011;49084;48.204;16.202;2022-09-03T17:26:33;3.42;;;1.45;;
62990;SDS011;49084;48.204;16.202;2022-09-03T17:45:21;4.05;;;1.20;;
62990;SDS011;49084;48.204;16.202;2022-09-03T17:50:52;2.42;;;1.25;;
62990;SDS011;49084;48.204;16.202;2022-09-03T17:56:23;3.00;;;1.40;;
62990;SDS011;49084;48.204;16.202;2022-09-03T17:59:04;2.72;;;1.65;;
62990;SDS011;49084;48.204;16.202;2022-09-03T18:01:47;3.25;;;1.30;;
62990;SDS011;49084;48.204;16.202;2022-09-03T18:04:30;2.50;;;1.38;;
62990;SDS011;49084;48.204;16.202;2022-09-03T18:09:58;1.98;;;1.20;;
62990;SDS011;49084;48.204;16.202;2022-09-03T18:12:42;1.25;;;1.02;;
62990;SDS011;49084;48.204;16.202;2022-09-03T18:15:27;3.13;;;1.27;;
62990;SDS011;49084;48.204;16.202;2022-09-03T18:18:12;3.53;;;1.20;;
62990;SDS011;49084;48.204;16.202;2022-09-03T18:20:51;2.28;;;1.33;;
62990;SDS011;49084;48.204;16.202;2022-09-03T18:27:08;2.25;;;1.17;;
62990;SDS011;49084;48.204;16.202;2022-09-03T18:32:47;1.65;;;1.10;;
62990;SDS011;49084;48.204;16.202;2022-09-03T18:35:31;4.13;;;1.48;;
62990;SDS011;49084;48.204;16.202;2022-09-03T18:38:22;1.70;;;1.00;;
62990;SDS011;49084;48.204;16.202;2022-09-03T18:56:50;2.63;;;1.60;;
62990;SDS011;49084;48.204;16.202;2022-09-03T19:08:34;5.30;;;1.77;;
62990;SDS011;49084;48.204;16.202;2022-09-03T19:11:28;3.08;;;1.45;;
62990;SDS011;49084;48.204;16.202;2022-09-03T19:17:19;2.78;;;1.73;;
62990;SDS011;49084;48.204;16.202;2022-09-03T19:23:08;3.00;;;1.83;;
62990;SDS011;49084;48.204;16.202;2022-09-03T19:25:52;2.03;;;1.90;;
62990;SDS011;49084;48.204;16.202;2022-09-03T19:28:43;1.70;;;1.60;;
62990;SDS011;49084;48.204;16.202;2022-09-03T19:31:46;5.15;;;2.17;;
62990;SDS011;49084;48.204;16.202;2022-09-03T19:40:56;8.85;;;2.10;;
62990;SDS011;49084;48.204;16.202;2022-09-03T19:43:56;3.50;;;1.85;;
62990;SDS011;49084;48.204;16.202;2022-09-03T19:46:57;2.92;;;2.00;;
62990;SDS011;49084;48.204;16.202;2022-09-03T19:55:33;4.18;;;2.17;;
62990;SDS011;49084;48.204;16.202;2022-09-03T19:58:22;4.82;;;1.92;;
62990;SDS011;49084;48.204;16.202;2022-09-03T20:01:08;2.20;;;2.05;;
62990;SDS011;49084;48.204;16.202;2022-09-03T20:03:58;3.97;;;2.80;;
62990;SDS011;49084;48.204;16.202;2022-09-03T20:06:46;2.83;;;2.17;;
62990;SDS011;49084;48.204;16.202;2022-09-03T20:09:32;3.20;;;2.20;;
62990;SDS011;49084;48.204;16.202;2022-09-03T20:12:20;3.03;;;1.80;;
62990;SDS011;49084;48.204;16.202;2022-09-03T20:14:48;4.28;;;2.55;;
62990;SDS011;49084;48.204;16.202;2022-09-03T20:17:19;3.83;;;2.00;;
62990;SDS011;49084;48.204;16.202;2022-09-03T20:30:46;2.85;;;2.53;;
62990;SDS011;49084;48.204;16.202;2022-09-03T20:56:50;8.55;;;3.65;;
62990;SDS011;49084;48.204;16.202;2022-09-03T21:02:29;3.30;;;2.42;;
62990;SDS011;49084;48.204;16.202;2022-09-03T21:13:20;4.05;;;2.33;;
62990;SDS011;49084;48.204;16.202;2022-09-03T21:23:26;3.90;;;2.08;;
62990;SDS011;49084;48.204;16.202;2022-09-03T21:26:18;11.38;;;2.47;;
62990;SDS011;49084;48.204;16.202;2022-09-03T21:34:29;2.75;;;2.30;;
62990;SDS011;49084;48.204;16.202;2022-09-03T21:36:59;2.92;;;1.90;;
62990;SDS011;49084;48.204;16.202;2022-09-03T21:39:30;2.25;;;2.08;;